• Join FlightAware (Why Join?)
  • Login
  • US Flag 
06:41AM EST


 

Airport Tracker/Info


-or-


 

Live Flight TrackerFlight Track Log ✈ N789EX ✈ 16-Apr-2014 ✈ KMWH - KBFI

Flight Track Log - Related Links

Times and Time Zones

All times are in EDT time to prevent confusion due to time zone crossing. See the N789EX flight status page for this flight to view local times or setup timezone preferences in your user account.

Time Position Orientation Groundspeed Altitude Reporting Facility
EDT Latitude Longitude Course Direction KTS MPH feet Rate Location/Type
01:04PM 47.3515 -119.9620 295° West 310 357 17,700  Level FlightAware ADS-B
01:04PM 47.3693 -120.0190 295° West 310 357 19,000 2,340 Climbing FlightAware ADS-B
01:05PM 47.3837 -120.0650 295° West 318 366 19,800 1,080 Climbing FlightAware ADS-B
01:05PM 47.4038 -120.1270 295° West 343 395 20,000 180 Climbing FlightAware ADS-B
01:06PM 47.4252 -120.1950 295° West 378 435 20,000  Level FlightAware ADS-B
01:06PM 47.4480 -120.2680 295° West 400 460 20,000  Level FlightAware ADS-B
01:07PM 47.4717 -120.3440 295° West 399 459 20,000  Level FlightAware ADS-B
01:08PM 47.5154 -120.4830 295° West 400 460 20,000  Level FlightAware ADS-B
01:08PM 47.5390 -120.5590 295° West 405 466 20,000  Level FlightAware ADS-B
01:09PM 47.5712 -120.6630 295° West 404 465 20,000  Level FlightAware ADS-B
01:09PM 47.5948 -120.7390 295° West 406 467 20,000  Level FlightAware ADS-B
01:10PM 47.6182 -120.8150 295° West 407 468 20,000  Level FlightAware ADS-B
01:10PM 47.6416 -120.8920 294° West 406 467 20,000  Level FlightAware ADS-B
01:11PM 47.6652 -120.9690 294° West 404 465 20,000  Level FlightAware ADS-B
01:11PM 47.6769 -121.0070 293° West 401 461 20,000  Level FlightAware ADS-B
01:11PM 47.6812 -121.0240 290° West 401 461 20,000  Level FlightAware ADS-B
01:11PM 47.6834 -121.0350 285° West 402 463 20,000 -840 Level FlightAware ADS-B
01:11PM 47.6873 -121.0630 279° West 405 466 19,800 -2,100 Descending FlightAware ADS-B
01:12PM 47.6941 -121.1460 277° West 403 464 18,600 -2,520 Descending FlightAware ADS-B
01:12PM 47.6949 -121.1560 277° West 401 461 18,400 -2,160 Descending FlightAware ADS-B (CYWH)
01:12PM 47.7014 -121.2290 278° West 390 449 17,500 -3,360 Descending FlightAware ADS-B
01:13PM 47.7094 -121.3080 279° West 376 433 15,200 -4,740 Descending FlightAware ADS-B
01:13PM 47.7184 -121.3850 280° West 372 428 12,700 -4,680 Descending FlightAware ADS-B
01:13PM 47.7199 -121.3983 280° West 369 425 12,400 -4,020 Descending FlightAware ADS-B (CYVR)
01:14PM 47.7272 -121.4600 280° West 372 428 10,700 -3,360 Descending FlightAware ADS-B
01:14PM 47.7329 -121.5060 281° West 369 425 10,000 -1,440 Descending FlightAware ADS-B
01:14PM 47.7376 -121.5420 281° West 354 407 9,900 -240 Descending FlightAware ADS-B
01:15PM 47.7422 -121.5770 281° West 324 373 9,900  Level FlightAware ADS-B
01:15PM 47.7464 -121.6080 281° West 293 337 9,900  Level FlightAware ADS-B
01:15PM 47.7502 -121.6370 281° West 276 318 9,900  Level FlightAware ADS-B
01:15PM 47.7542 -121.6660 281° West 267 307 9,900  Level FlightAware ADS-B
01:16PM 47.7558 -121.6775 280° West 369 425 9,900 -420 Level FlightAware ADS-B (CYVR)
01:16PM 47.7579 -121.6930 281° West 266 306 9,800 -1,020 Descending FlightAware ADS-B
01:16PM 47.7615 -121.7200 281° West 262 302 9,500 -1,920 Descending FlightAware ADS-B
01:16PM 47.7649 -121.7460 281° West 263 303 8,900 -2,220 Descending FlightAware ADS-B
01:16PM 47.7685 -121.7740 281° West 263 303 8,400 -1,980 Descending FlightAware ADS-B
01:17PM 47.7720 -121.8010 281° West 262 302 7,900 -1,800 Descending FlightAware ADS-B
01:17PM 47.7726 -121.8057 281° West 262 302 7,800 -2,040 Descending FlightAware ADS-B (CYVR)
01:17PM 47.7740 -121.8160 282° West 261 300 7,600 -1,680 Descending FlightAware ADS-B
01:17PM 47.7775 -121.8400 283° West 263 303 7,300 -1,500 Descending FlightAware ADS-B
01:17PM 47.7819 -121.8670 284° West 255 293 6,900 -2,100 Descending FlightAware ADS-B
01:18PM 47.7837 -121.8800 279° West 252 290 6,500 -2,520 Descending FlightAware ADS-B
01:18PM 47.7842 -121.8860 274° West 251 289 6,400 -2,280 Descending FlightAware ADS-B
01:18PM 47.7842 -121.8940 269° West 249 287 6,200 -2,400 Descending FlightAware ADS-B
01:18PM 47.7837 -121.9030 264° West 247 284 6,000 -2,340 Descending FlightAware ADS-B
01:18PM 47.7826 -121.9160 262° West 247 284 5,700 -2,640 Descending FlightAware ADS-B
01:18PM 47.7797 -121.9420 260° West 249 287 5,000 -2,460 Descending FlightAware ADS-B
01:18PM 47.7766 -121.9690 260° West 248 285 4,400 -2,340 Descending FlightAware ADS-B
01:19PM 47.7735 -121.9950 260° West 244 281 3,800 -2,040 Descending FlightAware ADS-B
01:19PM 47.7708 -122.0200 261° West 238 274 3,400 -1,020 Descending FlightAware ADS-B
01:19PM 47.7681 -122.0450 262° West 233 268 3,300 -780 Descending FlightAware ADS-B
01:19PM 47.7656 -122.0710 262° West 229 264 3,000 -780 Descending FlightAware ADS-B
01:20PM 47.7633 -122.0950 262° West 227 261 2,900 -240 Descending FlightAware ADS-B
01:20PM 47.7606 -122.1220 262° West 229 264 2,900  Level FlightAware ADS-B
01:20PM 47.7580 -122.1490 262° West 229 264 2,900  Level FlightAware ADS-B
01:21PM 47.7558 -122.1730 262° West 231 266 2,900  Level FlightAware ADS-B
01:21PM 47.7534 -122.1980 262° West 229 264 2,900  Level FlightAware ADS-B
01:21PM 47.7511 -122.2220 262° West 230 265 2,900  Level FlightAware ADS-B
01:21PM 47.7477 -122.2570 262° West 231 266 2,900  Level FlightAware ADS-B
01:22PM 47.7451 -122.2820 261° West 230 265 2,900  Level FlightAware ADS-B
01:22PM 47.7430 -122.3060 262° West 231 266 2,900  Level FlightAware ADS-B
01:22PM 47.7408 -122.3290 262° West 203 234 2,900  Level FlightAware ADS-B
01:22PM 47.7388 -122.3500 262° West 199 229 2,900  Level FlightAware ADS-B
01:23PM 47.7369 -122.3720 263° West 180 207 2,900 -420 Level FlightAware ADS-B
01:23PM 47.7354 -122.3910 263° West 176 203 2,700 -300 Descending FlightAware ADS-B
01:26PM 47.6653 -122.4170 150° Southeast 147 169 2,100 -240 Descending FlightAware ADS-B
01:26PM 47.6595 -122.4120 150° Southeast 149 171 2,100  Level FlightAware ADS-B
01:26PM 47.6472 -122.4020 150° Southeast 149 171 2,100  Level FlightAware ADS-B
01:26PM 47.6411 -122.3960 149° Southeast 150 173 2,100  Level FlightAware ADS-B
01:26PM 47.6356 -122.3920 150° Southeast 148 170 2,100 -300 Level FlightAware ADS-B
01:27PM 47.6280 -122.3850 150° Southeast 152 175 2,000 -600 Descending FlightAware ADS-B
01:27PM 47.6228 -122.3810 151° Southeast 153 176 1,900 -1,020 Descending FlightAware ADS-B
01:27PM 47.6059 -122.3670 150° Southeast 153 176 1,400 -780 Descending FlightAware ADS-B
01:28PM 47.5769 -122.3436 150° Southeast 153 176 900 -780 Descending Seattle Center
01:28PM 47.5633 -122.3311 148° Southeast 150 173 500 -660 Descending Seattle Center
01:29PM 47.5417 -122.3008 137° Southeast 159 183 200 -420 Descending Seattle Center